createdAt,value
2022-09-06T00:00:22.608Z,1.55
2022-09-06T00:03:08.825Z,1.52
2022-09-06T00:05:54.574Z,1.70
2022-09-06T00:08:40.560Z,1.52
2022-09-06T00:11:25.624Z,1.92
2022-09-06T00:14:11.395Z,1.98
2022-09-06T00:16:59.182Z,2.00
2022-09-06T00:19:44.786Z,2.08
2022-09-06T00:22:30.234Z,1.98
2022-09-06T00:25:15.589Z,2.15
2022-09-06T00:28:03.699Z,2.42
2022-09-06T00:30:48.972Z,2.47
2022-09-06T00:33:34.636Z,2.55
2022-09-06T00:36:41.223Z,2.17
2022-09-06T00:39:26.848Z,1.90
2022-09-06T00:42:13.682Z,1.88
2022-09-06T00:44:59.507Z,2.00
2022-09-06T00:47:45.715Z,1.90
2022-09-06T00:50:31.720Z,2.15
2022-09-06T00:53:18.569Z,1.85
2022-09-06T00:56:03.992Z,2.33
2022-09-06T00:58:49.676Z,2.17
2022-09-06T01:01:35.279Z,1.80
2022-09-06T01:04:21.197Z,2.40
2022-09-06T01:07:25.447Z,2.30
2022-09-06T01:10:29.153Z,2.83
2022-09-06T01:13:21.179Z,3.08
2022-09-06T01:16:28.781Z,3.00
2022-09-06T01:19:28.817Z,3.50
2022-09-06T01:22:42.300Z,3.28
2022-09-06T01:25:50.678Z,3.78
2022-09-06T01:28:45.101Z,3.30
2022-09-06T01:31:55.369Z,3.70
2022-09-06T01:34:47.903Z,3.78
2022-09-06T01:37:33.617Z,4.10
2022-09-06T01:40:19.294Z,3.75
2022-09-06T01:43:11.391Z,4.43
2022-09-06T01:46:19.810Z,4.78
2022-09-06T01:49:27.143Z,5.38
2022-09-06T01:52:16.896Z,5.53
2022-09-06T01:55:20.628Z,6.50
2022-09-06T01:58:20.210Z,6.00
2022-09-06T02:01:14.325Z,6.05
2022-09-06T02:04:19.895Z,6.20
2022-09-06T02:07:23.199Z,7.13
2022-09-06T02:10:18.490Z,6.53
2022-09-06T02:13:07.412Z,6.90
2022-09-06T02:16:02.255Z,6.03
2022-09-06T02:19:06.744Z,5.65
2022-09-06T02:21:54.701Z,5.45
2022-09-06T02:24:44.344Z,5.63
2022-09-06T02:27:31.125Z,5.90
2022-09-06T02:30:16.463Z,6.50
2022-09-06T02:33:11.205Z,6.97
2022-09-06T02:35:57.143Z,7.55
2022-09-06T02:38:44.753Z,8.05
2022-09-06T02:41:31.892Z,8.77
2022-09-06T02:44:17.171Z,8.52
2022-09-06T02:47:05.755Z,9.75
2022-09-06T02:49:51.063Z,8.80
2022-09-06T02:52:36.562Z,8.57
2022-09-06T02:55:21.867Z,9.05
2022-09-06T02:58:10.053Z,9.45
2022-09-06T03:00:58.122Z,10.10
2022-09-06T03:03:43.711Z,9.95
2022-09-06T03:06:30.254Z,10.93
2022-09-06T03:09:15.812Z,10.73
2022-09-06T03:12:01.127Z,10.23
2022-09-06T03:14:46.521Z,11.00
2022-09-06T03:17:31.915Z,10.52
2022-09-06T03:20:17.857Z,10.40
2022-09-06T03:23:03.028Z,10.43
2022-09-06T03:25:48.503Z,10.60
2022-09-06T03:28:34.374Z,11.88
2022-09-06T03:31:19.742Z,11.20
2022-09-06T03:34:09.059Z,11.93
2022-09-06T03:36:56.427Z,11.63
2022-09-06T03:39:53.621Z,12.27
2022-09-06T03:42:38.972Z,12.07
2022-09-06T03:45:24.486Z,11.75
2022-09-06T03:48:10.276Z,12.95
2022-09-06T03:50:57.492Z,13.15
2022-09-06T03:53:42.879Z,11.75
2022-09-06T03:56:28.959Z,10.45
2022-09-06T03:59:17.124Z,10.90
2022-09-06T04:02:02.634Z,11.82
2022-09-06T04:04:48.078Z,11.43
2022-09-06T04:07:33.547Z,11.15
2022-09-06T04:10:19.012Z,10.88
2022-09-06T04:13:04.132Z,10.65
2022-09-06T04:15:50.279Z,10.73
2022-09-06T04:18:38.680Z,9.70
2022-09-06T04:21:24.174Z,9.18
2022-09-06T04:24:09.723Z,9.30
2022-09-06T04:26:55.207Z,9.48
2022-09-06T04:29:40.708Z,10.50
2022-09-06T04:32:25.884Z,10.05
2022-09-06T04:35:11.475Z,11.52
2022-09-06T04:38:01.103Z,9.90
2022-09-06T04:40:46.693Z,9.88
2022-09-06T04:43:32.094Z,8.57
2022-09-06T04:46:22.339Z,10.10
2022-09-06T04:49:07.822Z,9.02
2022-09-06T04:51:53.035Z,8.88
2022-09-06T04:54:39.013Z,7.90
2022-09-06T04:57:24.543Z,8.50
2022-09-06T05:00:10.692Z,9.45
2022-09-06T05:02:56.054Z,8.85
2022-09-06T05:05:41.491Z,9.93
2022-09-06T05:08:27.166Z,10.63
2022-09-06T05:11:12.920Z,9.65
2022-09-06T05:13:58.422Z,11.57
2022-09-06T05:16:45.479Z,10.95
2022-09-06T05:19:34.380Z,11.23
2022-09-06T05:22:19.400Z,10.05
2022-09-06T05:25:05.740Z,9.70
2022-09-06T05:27:51.242Z,11.07
2022-09-06T05:30:36.731Z,10.55
2022-09-06T05:33:23.293Z,11.52
2022-09-06T05:36:09.031Z,11.90
2022-09-06T05:38:59.349Z,13.00
2022-09-06T05:41:44.862Z,12.52
2022-09-06T05:44:30.521Z,13.63
2022-09-06T05:47:15.887Z,14.02
2022-09-06T05:50:02.611Z,14.25
2022-09-06T05:52:48.045Z,13.80
2022-09-06T05:55:33.768Z,15.27
2022-09-06T05:58:21.949Z,14.50
2022-09-06T06:01:18.241Z,14.18
2022-09-06T06:04:05.428Z,12.80
2022-09-06T06:06:51.039Z,13.45
2022-09-06T06:09:36.869Z,13.80
2022-09-06T06:12:22.685Z,13.82
2022-09-06T06:15:08.091Z,13.68
2022-09-06T06:17:53.520Z,15.43
2022-09-06T06:20:38.971Z,14.02
2022-09-06T06:23:24.477Z,13.73
2022-09-06T06:26:11.955Z,13.45
2022-09-06T06:28:58.869Z,13.27
2022-09-06T06:31:44.432Z,13.52
2022-09-06T06:34:30.022Z,12.98
2022-09-06T06:37:15.324Z,13.25
2022-09-06T06:40:00.847Z,12.50
2022-09-06T06:42:46.312Z,13.88
2022-09-06T06:45:32.387Z,13.07
2022-09-06T06:48:18.115Z,14.18
2022-09-06T06:51:04.010Z,12.85
2022-09-06T06:53:49.644Z,12.50
2022-09-06T06:56:37.889Z,12.65
2022-09-06T06:59:23.571Z,11.70
2022-09-06T07:02:09.371Z,11.13
2022-09-06T07:04:54.915Z,11.13
2022-09-06T07:07:41.091Z,10.57
2022-09-06T07:10:34.500Z,10.82
2022-09-06T07:13:20.160Z,11.43
2022-09-06T07:16:24.719Z,10.52
2022-09-06T07:22:15.770Z,10.80
2022-09-06T07:25:01.271Z,10.20
2022-09-06T07:27:47.815Z,10.65
2022-09-06T07:30:36.859Z,10.05
2022-09-06T07:33:22.449Z,10.88
2022-09-06T07:36:09.018Z,10.27
2022-09-06T07:38:54.424Z,10.68
2022-09-06T07:41:43.046Z,10.00
2022-09-06T07:44:29.255Z,10.18
2022-09-06T07:53:34.436Z,10.93
2022-09-06T07:56:22.639Z,9.93
2022-09-06T07:59:10.976Z,10.48
2022-09-06T08:01:56.384Z,9.93
2022-09-06T08:04:42.522Z,10.05
2022-09-06T08:07:43.055Z,10.20
2022-09-06T08:10:28.304Z,9.90
2022-09-06T08:13:22.922Z,10.40
2022-09-06T08:16:10.293Z,10.07
2022-09-06T08:18:58.591Z,9.45
2022-09-06T08:21:43.876Z,8.82
2022-09-06T08:24:29.063Z,10.02
2022-09-06T08:27:14.432Z,9.25
2022-09-06T08:30:00.008Z,9.18
2022-09-06T08:32:45.432Z,9.65
2022-09-06T08:35:30.742Z,8.20
2022-09-06T08:38:16.172Z,7.78
2022-09-06T08:41:11.792Z,8.43
2022-09-06T08:47:16.661Z,8.60
2022-09-06T08:50:05.729Z,8.85
2022-09-06T08:53:17.603Z,8.90
2022-09-06T08:56:32.016Z,8.50
2022-09-06T08:59:19.713Z,8.82
2022-09-06T09:02:13.431Z,7.95
2022-09-06T09:05:02.766Z,7.60
2022-09-06T09:08:07.679Z,7.55
2022-09-06T09:11:07.479Z,7.65
2022-09-06T09:14:12.257Z,7.50
2022-09-06T09:17:07.687Z,7.50
2022-09-06T09:22:40.454Z,6.50
2022-09-06T09:25:37.575Z,7.18
2022-09-06T09:28:24.351Z,6.82
2022-09-06T09:31:10.155Z,6.78
2022-09-06T09:33:56.425Z,7.80
2022-09-06T09:39:49.445Z,7.22
2022-09-06T09:42:37.283Z,6.72
2022-09-06T09:45:30.463Z,7.43
2022-09-06T09:48:24.768Z,8.43
2022-09-06T09:51:27.072Z,7.47
2022-09-06T09:54:32.211Z,8.32
2022-09-06T09:57:19.023Z,7.45
2022-09-06T10:00:08.815Z,7.22
2022-09-06T10:02:54.106Z,7.82
2022-09-06T10:05:40.963Z,7.18
2022-09-06T10:08:27.198Z,7.18
2022-09-06T10:11:15.596Z,6.88
2022-09-06T10:14:12.180Z,7.93
2022-09-06T10:16:59.970Z,6.95
2022-09-06T10:19:51.478Z,6.53
2022-09-06T10:22:57.692Z,7.57
2022-09-06T10:25:52.289Z,8.75
2022-09-06T10:28:45.380Z,8.23
2022-09-06T10:31:39.948Z,8.82
2022-09-06T10:34:50.280Z,8.52
2022-09-06T10:38:03.479Z,8.30
2022-09-06T10:41:19.320Z,7.57
2022-09-06T10:44:45.545Z,8.13
2022-09-06T10:50:40.496Z,8.30
2022-09-06T10:53:31.970Z,8.77
2022-09-06T10:56:46.160Z,7.60
2022-09-06T10:59:38.014Z,7.25
2022-09-06T11:02:47.445Z,7.55
2022-09-06T11:05:39.834Z,6.90
2022-09-06T11:08:48.095Z,6.72
2022-09-06T11:11:42.782Z,6.78
2022-09-06T11:14:29.552Z,7.60
2022-09-06T11:17:41.019Z,7.45
2022-09-06T11:20:34.715Z,7.28
2022-09-06T11:23:48.326Z,7.35
2022-09-06T11:26:40.346Z,7.50
2022-09-06T11:29:30.982Z,8.10
2022-09-06T11:32:35.999Z,8.27
2022-09-06T11:35:28.528Z,8.38
2022-09-06T11:38:22.143Z,8.27
2022-09-06T11:41:15.291Z,7.00
2022-09-06T11:44:01.448Z,5.72
2022-09-06T11:46:48.184Z,5.13
2022-09-06T11:49:39.059Z,6.25
2022-09-06T11:53:08.857Z,7.43
2022-09-06T11:55:59.810Z,8.02
2022-09-06T11:58:55.901Z,7.60
2022-09-06T12:01:53.231Z,6.75
2022-09-06T12:05:09.379Z,5.50
2022-09-06T12:08:23.699Z,5.82
2022-09-06T12:11:30.648Z,4.82
2022-09-06T12:14:49.114Z,3.70
2022-09-06T12:17:47.643Z,4.30
2022-09-06T12:20:47.953Z,4.43
2022-09-06T12:23:36.402Z,5.80
2022-09-06T12:27:03.668Z,4.40
2022-09-06T12:30:12.027Z,3.85
2022-09-06T12:32:58.515Z,3.50
2022-09-06T12:35:59.817Z,4.20
2022-09-06T12:39:09.915Z,3.58
2022-09-06T12:42:04.652Z,3.13
2022-09-06T12:44:54.393Z,3.85
2022-09-06T12:47:42.627Z,4.05
2022-09-06T12:50:31.402Z,4.78
2022-09-06T12:53:25.433Z,3.95
2022-09-06T12:56:12.554Z,3.05
2022-09-06T12:59:17.016Z,3.83
2022-09-06T13:02:07.218Z,2.35
2022-09-06T13:05:05.340Z,1.92
2022-09-06T13:07:54.321Z,2.85
2022-09-06T13:10:44.504Z,2.30
2022-09-06T13:13:30.224Z,1.88
2022-09-06T13:16:27.353Z,1.90
2022-09-06T13:19:15.330Z,1.38
2022-09-06T13:22:01.947Z,2.10
2022-09-06T13:24:47.921Z,2.10
2022-09-06T13:27:38.741Z,1.67
2022-09-06T13:30:42.192Z,1.70
2022-09-06T13:33:27.587Z,1.63
2022-09-06T13:36:42.247Z,2.03
2022-09-06T13:39:35.834Z,2.20
2022-09-06T13:42:38.493Z,1.60
2022-09-06T13:45:31.648Z,1.67
2022-09-06T13:48:28.715Z,1.85
2022-09-06T13:51:15.036Z,1.90
2022-09-06T13:54:08.812Z,1.48
2022-09-06T13:56:54.464Z,1.60
2022-09-06T13:59:39.585Z,1.83
2022-09-06T14:02:25.130Z,1.42
2022-09-06T14:05:10.290Z,2.05
2022-09-06T14:07:55.688Z,2.20
2022-09-06T14:10:41.459Z,1.90
2022-09-06T14:13:26.580Z,1.80
2022-09-06T14:16:12.545Z,1.90
2022-09-06T14:18:57.966Z,1.80
2022-09-06T14:21:43.290Z,2.03
2022-09-06T14:24:28.468Z,1.63
2022-09-06T14:27:13.955Z,1.52
2022-09-06T14:29:59.386Z,1.70
2022-09-06T14:32:44.919Z,2.22
2022-09-06T14:35:34.284Z,1.92
2022-09-06T14:38:19.863Z,1.80
2022-09-06T14:41:06.006Z,1.70
2022-09-06T14:43:54.869Z,1.73
2022-09-06T14:46:40.026Z,1.55
2022-09-06T14:49:27.955Z,1.50
2022-09-06T14:52:13.703Z,1.50
2022-09-06T14:54:59.089Z,1.88
2022-09-06T14:57:44.515Z,1.70
2022-09-06T15:00:29.907Z,2.13
2022-09-06T15:03:15.233Z,1.85
2022-09-06T15:06:00.692Z,2.05
2022-09-06T15:08:46.007Z,1.83
2022-09-06T15:11:37.256Z,1.00
2022-09-06T15:14:29.635Z,1.40
2022-09-06T15:17:15.127Z,1.10
2022-09-06T15:20:00.576Z,1.50
2022-09-06T15:22:45.872Z,1.10
2022-09-06T15:25:32.228Z,1.15
2022-09-06T15:28:19.212Z,0.90
2022-09-06T15:31:05.699Z,1.60
2022-09-06T15:33:51.748Z,0.95
2022-09-06T15:36:37.944Z,1.38
2022-09-06T15:39:23.315Z,1.60
2022-09-06T15:42:09.007Z,1.50
2022-09-06T15:44:55.228Z,1.77
2022-09-06T15:47:40.703Z,1.33
2022-09-06T15:50:50.000Z,1.50
2022-09-06T15:53:31.390Z,1.50
2022-09-06T15:56:17.868Z,1.13
2022-09-06T15:59:03.436Z,1.15
2022-09-06T16:01:48.560Z,1.17
2022-09-06T16:04:36.384Z,1.42
2022-09-06T16:07:21.682Z,1.10
2022-09-06T16:10:07.071Z,0.80
2022-09-06T16:12:53.114Z,1.52
2022-09-06T16:15:40.011Z,1.40
2022-09-06T16:18:25.591Z,1.17
2022-09-06T16:21:18.560Z,1.00
2022-09-06T16:24:06.485Z,1.25
2022-09-06T16:26:52.127Z,1.10
2022-09-06T16:29:38.315Z,1.25
2022-09-06T16:32:24.000Z,1.13
2022-09-06T16:35:09.395Z,1.23
2022-09-06T16:37:54.643Z,1.27
2022-09-06T16:40:46.477Z,1.20
2022-09-06T16:43:33.530Z,1.17
2022-09-06T16:46:20.053Z,1.20
2022-09-06T16:49:05.934Z,1.30
2022-09-06T16:51:51.207Z,1.73
2022-09-06T16:54:37.290Z,1.70
2022-09-06T16:57:24.745Z,1.50
2022-09-06T17:00:11.764Z,1.92
2022-09-06T17:02:56.842Z,1.98
2022-09-06T17:05:42.023Z,1.77
2022-09-06T17:08:27.410Z,1.55
2022-09-06T17:11:22.391Z,1.50
2022-09-06T17:14:08.026Z,1.38
2022-09-06T17:17:09.796Z,1.38
2022-09-06T17:19:55.174Z,1.90
2022-09-06T17:22:40.771Z,1.40
2022-09-06T17:25:26.189Z,1.95
2022-09-06T17:28:11.627Z,1.60
2022-09-06T17:31:01.103Z,1.90
2022-09-06T17:33:50.464Z,1.60
2022-09-06T17:36:36.361Z,1.50
2022-09-06T17:39:21.603Z,1.83
2022-09-06T17:42:07.252Z,1.73
2022-09-06T17:44:52.399Z,1.65
2022-09-06T17:47:37.851Z,1.60
2022-09-06T17:50:23.576Z,2.20
2022-09-06T17:53:08.884Z,1.58
2022-09-06T17:55:54.080Z,1.77
2022-09-06T17:58:40.829Z,1.70
2022-09-06T18:01:47.057Z,1.85
2022-09-06T18:04:32.675Z,1.30
2022-09-06T18:07:18.654Z,2.10
2022-09-06T18:10:04.326Z,1.90
2022-09-06T18:12:50.196Z,1.88
2022-09-06T18:15:39.190Z,1.80
2022-09-06T18:18:28.177Z,1.83
2022-09-06T18:21:13.600Z,2.00
2022-09-06T18:23:59.451Z,2.17
2022-09-06T18:26:44.843Z,2.10
2022-09-06T18:29:31.361Z,1.95
2022-09-06T18:32:16.791Z,2.20
2022-09-06T18:35:02.133Z,1.85
2022-09-06T18:37:47.432Z,2.72
2022-09-06T18:40:33.738Z,2.47
2022-09-06T18:43:19.938Z,2.90
2022-09-06T18:46:08.558Z,2.85
2022-09-06T18:48:55.365Z,2.30
2022-09-06T18:51:41.099Z,2.50
2022-09-06T18:54:26.781Z,2.15
2022-09-06T18:57:14.175Z,2.55
2022-09-06T18:59:59.287Z,2.50
2022-09-06T19:02:47.790Z,2.95
2022-09-06T19:05:35.547Z,2.45
2022-09-06T19:08:20.964Z,2.60
2022-09-06T19:11:11.972Z,2.40
2022-09-06T19:13:58.310Z,2.80
2022-09-06T19:16:54.672Z,2.97
2022-09-06T19:19:40.802Z,3.88
2022-09-06T19:22:27.036Z,4.63
2022-09-06T19:25:12.367Z,4.63
2022-09-06T19:27:58.288Z,5.60
2022-09-06T19:30:43.644Z,6.50
2022-09-06T19:33:34.260Z,6.75
2022-09-06T19:36:22.984Z,6.82
2022-09-06T19:39:14.274Z,7.20
2022-09-06T19:42:00.127Z,6.75
2022-09-06T19:44:45.371Z,7.00
2022-09-06T19:47:30.795Z,6.75
2022-09-06T19:50:16.367Z,6.93
2022-09-06T19:53:07.083Z,6.13
2022-09-06T19:55:52.427Z,6.10
2022-09-06T19:58:38.895Z,6.60
2022-09-06T20:01:29.579Z,6.50
2022-09-06T20:04:15.620Z,7.53
2022-09-06T20:07:00.674Z,7.07
2022-09-06T20:09:48.510Z,8.05
2022-09-06T20:12:38.400Z,8.98
2022-09-06T20:15:26.290Z,9.82
2022-09-06T20:18:11.739Z,9.20
2022-09-06T20:21:00.519Z,10.73
2022-09-06T20:23:50.370Z,10.93
2022-09-06T20:26:35.689Z,12.05
2022-09-06T20:29:21.151Z,12.07
2022-09-06T20:32:07.115Z,11.57
2022-09-06T20:34:53.668Z,9.82
2022-09-06T20:37:39.221Z,9.25
2022-09-06T20:40:24.588Z,9.75
2022-09-06T20:43:09.982Z,10.13
2022-09-06T20:45:56.060Z,10.13
2022-09-06T20:48:45.034Z,9.00
2022-09-06T20:51:43.108Z,9.23
2022-09-06T20:54:28.327Z,8.65
2022-09-06T20:57:14.488Z,9.30
2022-09-06T20:59:59.864Z,8.80
2022-09-06T21:02:45.016Z,7.85
2022-09-06T21:05:30.878Z,8.40
2022-09-06T21:08:17.274Z,8.63
2022-09-06T21:11:05.322Z,9.73
2022-09-06T21:13:52.682Z,10.13
2022-09-06T21:16:39.572Z,10.45
2022-09-06T21:19:25.701Z,12.77
2022-09-06T21:22:10.708Z,12.95
2022-09-06T21:24:56.332Z,13.38
2022-09-06T21:27:42.516Z,13.98
2022-09-06T21:30:28.018Z,14.10
2022-09-06T21:33:13.551Z,12.52
2022-09-06T21:36:11.278Z,12.55
2022-09-06T21:38:59.239Z,14.88
2022-09-06T21:41:45.684Z,14.07
2022-09-06T21:44:31.311Z,9.00
2022-09-06T21:47:16.608Z,10.25
2022-09-06T21:50:02.226Z,7.07
2022-09-06T21:52:47.703Z,3.17
2022-09-06T21:55:33.460Z,4.80
2022-09-06T21:58:18.728Z,4.15
2022-09-06T22:01:05.372Z,3.10
2022-09-06T22:03:51.151Z,3.60
2022-09-06T22:06:37.680Z,4.28
2022-09-06T22:09:23.042Z,4.43
2022-09-06T22:12:08.560Z,3.55
2022-09-06T22:14:53.953Z,4.07
2022-09-06T22:17:39.491Z,4.03
2022-09-06T22:20:24.720Z,3.97
2022-09-06T22:23:10.324Z,4.38
2022-09-06T22:26:04.571Z,5.05
2022-09-06T22:28:54.520Z,6.90
2022-09-06T22:31:40.180Z,11.10
2022-09-06T22:34:25.809Z,12.88
2022-09-06T22:37:11.587Z,16.10
2022-09-06T22:39:57.232Z,17.20
2022-09-06T22:42:43.337Z,16.20
2022-09-06T22:45:28.371Z,19.92
2022-09-06T22:48:14.645Z,22.95
2022-09-06T22:51:01.456Z,20.52
2022-09-06T22:53:46.550Z,29.02
2022-09-06T22:56:32.276Z,26.23
2022-09-06T22:59:17.828Z,27.38
2022-09-06T23:02:03.408Z,28.42
2022-09-06T23:04:49.482Z,25.13
2022-09-06T23:07:34.639Z,24.23
2022-09-06T23:10:20.390Z,28.13
2022-09-06T23:13:05.659Z,39.60
2022-09-06T23:15:51.249Z,34.45
2022-09-06T23:18:37.120Z,27.40
2022-09-06T23:21:25.068Z,30.17
2022-09-06T23:24:10.699Z,27.27
2022-09-06T23:26:57.055Z,32.05
2022-09-06T23:29:43.923Z,25.85
2022-09-06T23:32:33.758Z,17.13
2022-09-06T23:35:19.117Z,11.00
2022-09-06T23:38:05.716Z,9.65
2022-09-06T23:40:51.283Z,10.63
2022-09-06T23:43:37.303Z,7.97
2022-09-06T23:46:22.699Z,9.20
2022-09-06T23:49:08.129Z,9.77
2022-09-06T23:51:53.865Z,13.90
2022-09-06T23:54:39.479Z,10.60
2022-09-06T23:57:27.640Z,11.15
